Terminal Aerodrome Forecast
Issued by NWS Duluth, MN

Home | Current Version | Previous Version | Text Only | Print | Product List | Glossary On
Versions: 1 2 3 4 5 6 7 8 9 10 11 12 13 14 15 16 17 18 19 20 21 22 23 24 25 26 27 28 29 30 31 32 33 34 35 36 37 38 39 40 41 42 43 44 45 46 47 48 49 50
000
FTUS43 KDLH 200700 AAA
TAFDLH
TAF AMD
KDLH 200742Z 2008/2106 VRB03KT 1/4SM FG OVC002
      TEMPO 2009/2012 3SM BR OVC003
     FM201200 VRB03KT 3SM BR SCT003
     FM201400 12004KT P6SM SCT009
     FM201600 11006KT P6SM SKC
     FM202300 08007KT P6SM BKN250=

USA.gov is the U.S. government's official web portal to all federal, state and local government web resources and services.